createdAt,value
2019-01-16T00:00:06.109Z,3.10
2019-01-16T00:02:35.342Z,3.00
2019-01-16T00:05:00.167Z,2.73
2019-01-16T00:07:32.802Z,2.97
2019-01-16T00:09:48.731Z,2.90
2019-01-16T00:12:04.580Z,3.80
2019-01-16T00:14:28.122Z,2.67
2019-01-16T00:17:15.244Z,2.47
2019-01-16T00:19:47.459Z,2.27
2019-01-16T00:22:16.845Z,2.47
2019-01-16T00:24:54.915Z,2.67
2019-01-16T00:27:24.110Z,2.77
2019-01-16T00:29:46.271Z,2.70
2019-01-16T00:32:21.634Z,2.50
2019-01-16T00:34:50.644Z,3.30
2019-01-16T00:37:20.105Z,2.77
2019-01-16T00:40:02.438Z,2.63
2019-01-16T00:42:27.486Z,2.73
2019-01-16T00:44:43.084Z,2.17
2019-01-16T00:47:24.463Z,2.60
2019-01-16T00:49:42.869Z,2.07
2019-01-16T00:52:05.240Z,2.50
2019-01-16T00:54:42.609Z,2.10
2019-01-16T00:56:59.720Z,2.40
2019-01-16T00:59:23.833Z,2.30
2019-01-16T01:01:50.585Z,2.23
2019-01-16T01:04:12.330Z,2.27
2019-01-16T01:06:34.979Z,1.73
2019-01-16T01:08:53.004Z,2.20
2019-01-16T01:11:16.501Z,2.60
2019-01-16T01:13:44.021Z,2.00
2019-01-16T01:16:16.220Z,2.10
2019-01-16T01:18:40.950Z,2.20
2019-01-16T01:21:04.446Z,2.10
2019-01-16T01:23:26.248Z,1.73
2019-01-16T01:25:54.206Z,2.50
2019-01-16T01:28:20.863Z,244.43
2019-01-16T01:30:46.692Z,244.90
2019-01-16T01:33:10.132Z,320.27
2019-01-16T01:35:51.401Z,998.10
2019-01-16T01:38:19.017Z,27.40
2019-01-16T01:40:42.663Z,691.47
2019-01-16T01:43:02.308Z,1098.57
2019-01-16T01:45:41.633Z,916.50
2019-01-16T01:48:11.776Z,148.20
2019-01-16T01:50:34.571Z,49.27
2019-01-16T01:52:59.641Z,20.30
2019-01-16T01:55:18.316Z,6.20
2019-01-16T01:57:49.950Z,4.17
2019-01-16T02:00:13.000Z,3.00
2019-01-16T02:02:35.519Z,3.17
2019-01-16T02:04:57.266Z,2.70
2019-01-16T02:07:38.692Z,2.90
2019-01-16T02:10:04.539Z,2.27
2019-01-16T02:12:27.684Z,2.17
2019-01-16T02:15:10.598Z,2.40
2019-01-16T02:17:45.464Z,2.50
2019-01-16T02:20:21.185Z,2.10
2019-01-16T02:22:51.672Z,2.10
2019-01-16T02:25:13.434Z,2.07
2019-01-16T02:27:39.564Z,2.07
2019-01-16T02:30:05.621Z,2.07
2019-01-16T02:32:28.681Z,2.20
2019-01-16T02:34:40.790Z,1.70
2019-01-16T02:37:03.897Z,5.83
2019-01-16T02:39:16.131Z,1.47
2019-01-16T02:41:51.017Z,1.70
2019-01-16T02:44:29.483Z,2.10
2019-01-16T02:46:51.409Z,1.97
2019-01-16T02:49:00.476Z,1.70
2019-01-16T02:51:25.928Z,1.70
2019-01-16T02:53:56.590Z,1.80
2019-01-16T02:56:26.107Z,1.70
2019-01-16T02:58:43.081Z,1.70
2019-01-16T03:01:12.276Z,1.50
2019-01-16T03:03:35.559Z,1.90
2019-01-16T03:05:53.645Z,1.40
2019-01-16T03:08:15.061Z,1.63
2019-01-16T03:10:41.164Z,4.60
2019-01-16T03:13:10.833Z,2.10
2019-01-16T03:15:52.276Z,1.60
2019-01-16T03:18:17.930Z,1.50
2019-01-16T03:20:57.616Z,1.40
2019-01-16T03:23:21.312Z,1.50
2019-01-16T03:25:43.904Z,1.30
2019-01-16T03:28:06.858Z,1.13
2019-01-16T03:30:39.883Z,6.03
2019-01-16T03:33:03.964Z,2.00
2019-01-16T03:35:28.424Z,1.53
2019-01-16T03:37:51.501Z,1.40
2019-01-16T03:40:17.943Z,1.30
2019-01-16T03:42:40.298Z,1.20
2019-01-16T03:45:02.387Z,1.30
2019-01-16T03:47:26.598Z,1.30
2019-01-16T03:49:49.635Z,2.00
2019-01-16T03:52:12.141Z,1.30
2019-01-16T03:54:34.581Z,1.60
2019-01-16T03:56:57.319Z,1.33
2019-01-16T03:59:26.485Z,1.40
2019-01-16T04:01:48.520Z,1.43
2019-01-16T04:04:11.591Z,1.80
2019-01-16T04:06:25.698Z,1.97
2019-01-16T04:08:51.198Z,1.40
2019-01-16T04:11:16.527Z,1.17
2019-01-16T04:13:50.659Z,1.20
2019-01-16T04:16:15.600Z,1.57
2019-01-16T04:18:38.660Z,1.00
2019-01-16T04:20:49.928Z,1.27
2019-01-16T04:23:10.649Z,2.30
2019-01-16T04:25:45.661Z,1.20
2019-01-16T04:28:14.800Z,1.40
2019-01-16T04:30:43.253Z,1.20
2019-01-16T04:33:05.232Z,1.47
2019-01-16T04:35:27.367Z,1.30
2019-01-16T04:37:50.550Z,1.20
2019-01-16T04:40:17.592Z,1.40
2019-01-16T04:42:35.729Z,1.00
2019-01-16T04:44:48.930Z,1.00
2019-01-16T04:47:13.486Z,1.00
2019-01-16T04:49:36.119Z,1.00
2019-01-16T04:51:57.596Z,0.90
2019-01-16T04:54:20.883Z,1.20
2019-01-16T04:56:59.534Z,1.10
2019-01-16T04:59:27.753Z,1.97
2019-01-16T05:01:49.225Z,1.07
2019-01-16T05:04:19.399Z,1.27
2019-01-16T05:06:44.323Z,1.03
2019-01-16T05:09:02.521Z,1.10
2019-01-16T05:11:24.569Z,1.20
2019-01-16T05:13:51.610Z,1.30
2019-01-16T05:16:15.014Z,1.10
2019-01-16T05:18:36.708Z,1.30
2019-01-16T05:21:08.838Z,1.20
2019-01-16T05:23:41.137Z,0.90
2019-01-16T05:26:03.083Z,1.00
2019-01-16T05:28:39.082Z,1.20
2019-01-16T05:31:05.756Z,1.27
2019-01-16T05:33:23.188Z,1.23
2019-01-16T05:35:44.059Z,1.10
2019-01-16T05:37:59.293Z,1.00
2019-01-16T05:40:21.070Z,1.10
2019-01-16T05:42:38.789Z,1.43
2019-01-16T05:44:57.351Z,1.00
2019-01-16T05:47:19.063Z,1.03
2019-01-16T05:49:54.837Z,0.93
2019-01-16T05:52:24.369Z,1.10
2019-01-16T05:54:53.173Z,1.27
2019-01-16T05:57:20.633Z,1.00
2019-01-16T06:00:03.318Z,0.93
2019-01-16T06:02:28.442Z,0.80
2019-01-16T06:04:57.226Z,2.60
2019-01-16T06:07:13.787Z,0.90
2019-01-16T06:09:41.485Z,1.40
2019-01-16T06:12:07.078Z,1.10
2019-01-16T06:14:33.562Z,0.80
2019-01-16T06:16:52.355Z,0.97
2019-01-16T06:19:15.611Z,0.93
2019-01-16T06:21:35.693Z,0.73
2019-01-16T06:24:16.917Z,0.80
2019-01-16T06:26:46.418Z,0.73
2019-01-16T06:29:27.534Z,0.77
2019-01-16T06:31:50.121Z,2.90
2019-01-16T06:34:07.031Z,623.97
2019-01-16T06:36:31.381Z,1067.80
2019-01-16T06:38:57.984Z,801.53
2019-01-16T06:41:30.595Z,611.97
2019-01-16T06:43:49.494Z,51.90
2019-01-16T06:46:19.637Z,44.73
2019-01-16T06:48:42.285Z,15.70
2019-01-16T06:51:18.129Z,617.67
2019-01-16T06:54:02.774Z,25.77
2019-01-16T06:56:29.790Z,476.27
2019-01-16T06:59:05.885Z,22.93
2019-01-16T07:01:34.301Z,476.37
2019-01-16T07:03:57.917Z,11.70
2019-01-16T07:06:29.000Z,3.93
2019-01-16T07:08:52.165Z,1.40
2019-01-16T07:11:24.309Z,72.10
2019-01-16T07:13:58.969Z,72.57
2019-01-16T07:16:21.668Z,178.87
2019-01-16T07:18:41.337Z,8.60
2019-01-16T07:21:07.896Z,264.50
2019-01-16T07:23:24.335Z,1048.37
2019-01-16T07:25:50.498Z,105.40
2019-01-16T07:28:25.842Z,1245.93
2019-01-16T07:30:39.785Z,441.53
2019-01-16T07:33:01.433Z,171.57
2019-01-16T07:35:25.080Z,28.93
2019-01-16T07:37:46.105Z,12.00
2019-01-16T07:40:24.896Z,1505.57
2019-01-16T07:42:49.569Z,90.93
2019-01-16T07:45:06.872Z,12.10
2019-01-16T07:47:30.534Z,12.90
2019-01-16T07:50:17.374Z,2.30
2019-01-16T07:52:39.321Z,1.80
2019-01-16T07:55:02.152Z,1.23
2019-01-16T07:57:29.573Z,1.17
2019-01-16T07:59:49.102Z,88.03
2019-01-16T08:02:12.399Z,220.70
2019-01-16T08:04:35.193Z,466.40
2019-01-16T08:06:56.873Z,1612.83
2019-01-16T08:09:28.349Z,1999.90
2019-01-16T08:11:57.969Z,1131.90
2019-01-16T08:14:24.035Z,537.03
2019-01-16T08:16:44.933Z,638.67
2019-01-16T08:19:17.001Z,339.90
2019-01-16T08:21:55.703Z,214.63
2019-01-16T08:24:25.449Z,69.53
2019-01-16T08:26:59.684Z,13.80
2019-01-16T08:29:15.932Z,606.70
2019-01-16T08:31:34.603Z,51.33
2019-01-16T08:34:05.114Z,1243.33
2019-01-16T08:36:35.733Z,1174.70
2019-01-16T08:39:07.771Z,502.83
2019-01-16T08:41:36.390Z,468.77
2019-01-16T08:44:13.419Z,1907.27
2019-01-16T08:46:29.506Z,763.90
2019-01-16T08:48:59.303Z,630.30
2019-01-16T08:51:16.487Z,428.93
2019-01-16T08:53:45.096Z,1131.83
2019-01-16T08:56:11.892Z,171.60
2019-01-16T08:58:35.662Z,134.63
2019-01-16T09:01:08.887Z,806.83
2019-01-16T09:03:50.628Z,1388.10
2019-01-16T09:06:29.732Z,550.37
2019-01-16T09:09:02.768Z,232.43
2019-01-16T09:11:27.756Z,157.47
2019-01-16T09:14:20.452Z,53.07
2019-01-16T09:16:46.345Z,15.90
2019-01-16T09:19:12.355Z,7.13
2019-01-16T09:21:34.449Z,3.70
2019-01-16T09:23:58.169Z,2.60
2019-01-16T09:26:22.771Z,159.70
2019-01-16T09:29:02.510Z,651.90
2019-01-16T09:31:26.283Z,745.20
2019-01-16T09:33:49.447Z,436.07
2019-01-16T09:36:05.155Z,308.10
2019-01-16T09:38:35.116Z,824.23
2019-01-16T09:40:56.494Z,132.57
2019-01-16T09:43:29.627Z,34.10
2019-01-16T09:45:58.855Z,256.40
2019-01-16T09:48:23.039Z,37.73
2019-01-16T09:50:47.827Z,11.27
2019-01-16T09:53:06.569Z,216.03
2019-01-16T09:55:30.682Z,5.60
2019-01-16T09:57:45.314Z,2.47
2019-01-16T10:00:07.756Z,252.63
2019-01-16T10:02:44.079Z,43.80
2019-01-16T10:05:11.241Z,927.27
2019-01-16T10:07:46.721Z,76.53
2019-01-16T10:10:25.639Z,532.93
2019-01-16T10:12:47.617Z,434.60
2019-01-16T10:15:09.865Z,374.93
2019-01-16T10:17:41.607Z,760.87
2019-01-16T10:20:03.209Z,815.63
2019-01-16T10:22:26.915Z,628.93
2019-01-16T10:25:02.151Z,242.60
2019-01-16T10:27:37.805Z,115.03
2019-01-16T10:30:00.007Z,28.27
2019-01-16T10:32:29.451Z,11.90
2019-01-16T10:35:00.390Z,3.90
2019-01-16T10:37:23.753Z,9.60
2019-01-16T10:39:54.595Z,3.00
2019-01-16T10:42:17.771Z,2.90
2019-01-16T10:44:40.978Z,2.40
2019-01-16T10:47:03.953Z,2.67
2019-01-16T10:49:39.167Z,3.03
2019-01-16T10:52:00.641Z,2.43
2019-01-16T10:54:16.590Z,2.17
2019-01-16T10:56:31.681Z,2.40
2019-01-16T10:58:57.967Z,2.60
2019-01-16T11:01:21.687Z,2.30
2019-01-16T11:03:43.865Z,1.80
2019-01-16T11:06:22.676Z,2.10
2019-01-16T11:08:40.070Z,32.93
2019-01-16T11:11:16.113Z,7.80
2019-01-16T11:13:40.067Z,3.30
2019-01-16T11:16:01.730Z,4.57
2019-01-16T11:18:26.732Z,454.50
2019-01-16T11:20:52.275Z,3.10
2019-01-16T11:23:13.783Z,43.40
2019-01-16T11:25:34.343Z,4.67
2019-01-16T11:27:57.929Z,180.20
2019-01-16T11:30:24.635Z,4.70
2019-01-16T11:32:47.413Z,2.60
2019-01-16T11:35:08.996Z,2.63
2019-01-16T11:37:44.429Z,2.23
2019-01-16T11:40:08.470Z,5.37
2019-01-16T11:42:39.431Z,2.03
2019-01-16T11:45:05.875Z,20.33
2019-01-16T11:47:42.052Z,2.97
2019-01-16T11:50:03.853Z,1.67
2019-01-16T11:52:35.344Z,877.03
2019-01-16T11:55:00.183Z,899.27
2019-01-16T11:57:24.795Z,911.93
2019-01-16T11:59:42.711Z,1162.10
2019-01-16T12:02:21.042Z,1102.83
2019-01-16T12:04:44.801Z,1471.50
2019-01-16T12:07:00.949Z,825.77
2019-01-16T12:09:33.275Z,548.57
2019-01-16T12:11:45.891Z,929.43
2019-01-16T12:14:05.143Z,813.30
2019-01-16T12:16:18.369Z,468.47
2019-01-16T12:18:50.634Z,942.17
2019-01-16T12:21:34.450Z,449.10
2019-01-16T12:24:06.106Z,230.90
2019-01-16T12:26:32.802Z,252.57
2019-01-16T12:29:14.925Z,71.23
2019-01-16T12:31:36.588Z,12.60
2019-01-16T12:34:00.578Z,9.10
2019-01-16T12:36:26.543Z,3.93
2019-01-16T12:38:43.834Z,656.30
2019-01-16T12:41:15.794Z,134.27
2019-01-16T12:43:38.896Z,13.53
2019-01-16T12:45:51.582Z,102.07
2019-01-16T12:48:24.768Z,59.50
2019-01-16T12:50:48.040Z,1193.40
2019-01-16T12:53:15.726Z,33.63
2019-01-16T12:55:43.232Z,4.07
2019-01-16T12:58:04.805Z,4.03
2019-01-16T13:00:31.919Z,3.43
2019-01-16T13:03:09.812Z,188.10
2019-01-16T13:05:50.766Z,32.83
2019-01-16T13:08:20.661Z,8.70
2019-01-16T13:10:48.325Z,4.07
2019-01-16T13:13:12.014Z,3.83
2019-01-16T13:15:35.108Z,3.60
2019-01-16T13:17:54.618Z,1243.13
2019-01-16T13:20:17.462Z,898.43
2019-01-16T13:22:46.162Z,666.43
2019-01-16T13:25:09.227Z,585.87
2019-01-16T13:27:32.037Z,354.67
2019-01-16T13:29:58.014Z,83.13
2019-01-16T13:32:20.272Z,764.67
2019-01-16T13:34:53.352Z,672.90
2019-01-16T13:37:20.365Z,783.13
2019-01-16T13:39:45.604Z,919.67
2019-01-16T13:42:09.337Z,863.57
2019-01-16T13:44:45.776Z,987.60
2019-01-16T13:47:12.406Z,617.20
2019-01-16T13:49:33.690Z,330.30
2019-01-16T13:52:01.228Z,161.47
2019-01-16T13:54:29.780Z,658.37
2019-01-16T13:56:58.681Z,55.77
2019-01-16T13:59:29.966Z,814.60
2019-01-16T14:01:50.064Z,1833.23
2019-01-16T14:04:11.977Z,495.47
2019-01-16T14:06:45.229Z,394.63
2019-01-16T14:09:05.331Z,133.93
2019-01-16T14:11:40.370Z,26.30
2019-01-16T14:14:09.741Z,543.00
2019-01-16T14:16:31.886Z,925.00
2019-01-16T14:19:01.118Z,442.40
2019-01-16T14:21:27.337Z,376.37
2019-01-16T14:23:56.866Z,1078.43
2019-01-16T14:26:19.072Z,395.53
2019-01-16T14:28:42.057Z,116.17
2019-01-16T14:31:05.168Z,52.33
2019-01-16T14:33:36.196Z,820.47
2019-01-16T14:36:00.172Z,505.87
2019-01-16T14:38:23.528Z,244.50
2019-01-16T14:40:46.852Z,88.90
2019-01-16T14:43:19.298Z,21.87
2019-01-16T14:45:42.308Z,69.83
2019-01-16T14:48:04.414Z,28.90
2019-01-16T14:50:27.682Z,1092.97
2019-01-16T14:52:49.898Z,1234.33
2019-01-16T14:55:21.308Z,794.87
2019-01-16T14:57:48.630Z,494.43
2019-01-16T15:00:11.922Z,153.53
2019-01-16T15:02:48.392Z,95.60
2019-01-16T15:05:10.727Z,24.43
2019-01-16T15:07:32.337Z,19.27
2019-01-16T15:10:17.985Z,9.90
2019-01-16T15:12:39.746Z,7.43
2019-01-16T15:15:19.381Z,69.57
2019-01-16T15:17:43.981Z,436.93
2019-01-16T15:20:06.127Z,439.30
2019-01-16T15:22:41.770Z,146.93
2019-01-16T15:25:15.560Z,20.10
2019-01-16T15:27:45.777Z,8.67
2019-01-16T15:30:09.045Z,8.30
2019-01-16T15:32:37.484Z,5.90
2019-01-16T15:35:21.083Z,306.33
2019-01-16T15:37:50.505Z,46.60
2019-01-16T15:40:15.745Z,10.87
2019-01-16T15:42:51.232Z,6.30
2019-01-16T15:45:30.312Z,4.63
2019-01-16T15:47:53.585Z,260.70
2019-01-16T15:50:18.266Z,949.80
2019-01-16T15:52:55.109Z,1206.37
2019-01-16T15:55:21.764Z,731.87
2019-01-16T15:57:51.369Z,299.37
2019-01-16T16:00:24.291Z,616.10
2019-01-16T16:02:46.862Z,206.77
2019-01-16T16:05:09.728Z,51.87
2019-01-16T16:07:46.425Z,25.07
2019-01-16T16:10:28.257Z,340.30
2019-01-16T16:12:51.810Z,231.40
2019-01-16T16:15:33.069Z,36.57
2019-01-16T16:17:44.098Z,12.30
2019-01-16T16:20:05.587Z,16.77
2019-01-16T16:22:33.410Z,896.53
2019-01-16T16:25:07.683Z,28.63
2019-01-16T16:27:39.667Z,8.53
2019-01-16T16:30:01.242Z,735.10
2019-01-16T16:32:23.572Z,11.30
2019-01-16T16:34:59.020Z,417.37
2019-01-16T16:37:34.236Z,636.87
2019-01-16T16:40:03.385Z,45.67
2019-01-16T16:42:34.074Z,515.97
2019-01-16T16:44:56.428Z,36.03
2019-01-16T16:47:22.250Z,326.63
2019-01-16T16:49:51.075Z,54.27
2019-01-16T16:52:28.910Z,10.80
2019-01-16T16:55:04.926Z,7.53
2019-01-16T16:57:29.532Z,6.30
2019-01-16T17:00:03.783Z,6.00
2019-01-16T17:02:30.376Z,7.77
2019-01-16T17:05:03.222Z,6.10
2019-01-16T17:07:26.407Z,4.40
2019-01-16T17:09:45.340Z,4.70
2019-01-16T17:12:08.513Z,5.37
2019-01-16T17:14:30.370Z,8.17
2019-01-16T17:17:18.988Z,5.20
2019-01-16T17:20:03.150Z,4.50
2019-01-16T17:22:38.465Z,4.57
2019-01-16T17:24:51.654Z,4.30
2019-01-16T17:27:15.028Z,4.30
2019-01-16T17:29:49.215Z,4.27
2019-01-16T17:32:12.889Z,4.00
2019-01-16T17:34:32.763Z,4.87
2019-01-16T17:37:06.181Z,3.80
2019-01-16T17:39:41.855Z,4.10
2019-01-16T17:42:00.888Z,3.97
2019-01-16T17:44:43.657Z,4.10
2019-01-16T17:47:05.423Z,3.97
2019-01-16T17:49:28.627Z,5.73
2019-01-16T17:51:52.975Z,4.27
2019-01-16T17:54:17.948Z,3.50
2019-01-16T17:56:40.992Z,4.27
2019-01-16T17:59:17.016Z,3.77
2019-01-16T18:01:44.888Z,4.13
2019-01-16T18:04:09.806Z,3.63
2019-01-16T18:06:44.560Z,3.43
2019-01-16T18:08:56.710Z,3.50
2019-01-16T18:11:22.773Z,3.73
2019-01-16T18:14:04.891Z,3.57
2019-01-16T18:16:30.514Z,3.30
2019-01-16T18:19:00.577Z,3.57
2019-01-16T18:21:22.868Z,3.53
2019-01-16T18:24:07.379Z,3.57
2019-01-16T18:26:27.808Z,3.67
2019-01-16T18:28:47.223Z,3.00
2019-01-16T18:31:14.405Z,3.00
2019-01-16T18:33:38.172Z,3.20
2019-01-16T18:36:03.583Z,3.37
2019-01-16T18:38:45.756Z,3.37
2019-01-16T18:41:21.094Z,3.57
2019-01-16T18:43:53.293Z,3.50
2019-01-16T18:46:26.802Z,3.40
2019-01-16T18:48:56.724Z,3.30
2019-01-16T18:51:24.751Z,3.80
2019-01-16T18:53:46.827Z,3.50
2019-01-16T18:56:05.520Z,3.20
2019-01-16T18:58:31.839Z,3.30
2019-01-16T19:00:45.778Z,4.03
2019-01-16T19:03:08.486Z,3.80
2019-01-16T19:05:42.152Z,3.50
2019-01-16T19:08:06.217Z,3.47
2019-01-16T19:10:29.773Z,3.80
2019-01-16T19:12:58.074Z,3.83
2019-01-16T19:15:18.472Z,3.00
2019-01-16T19:17:36.385Z,3.80
2019-01-16T19:19:58.130Z,4.00
2019-01-16T19:22:17.427Z,3.00
2019-01-16T19:24:37.893Z,3.60
2019-01-16T19:26:57.083Z,3.40
2019-01-16T19:29:27.325Z,3.80
2019-01-16T19:31:56.713Z,3.53
2019-01-16T19:34:30.389Z,3.30
2019-01-16T19:36:52.321Z,2.83
2019-01-16T19:39:34.067Z,3.87
2019-01-16T19:42:02.529Z,3.20
2019-01-16T19:44:27.623Z,3.73
2019-01-16T19:47:10.475Z,2.80
2019-01-16T19:49:44.260Z,3.70
2019-01-16T19:52:17.034Z,3.30
2019-01-16T19:54:35.482Z,3.40
2019-01-16T19:56:57.582Z,3.50
2019-01-16T19:59:23.717Z,2.70
2019-01-16T20:01:45.668Z,3.30
2019-01-16T20:04:07.152Z,3.30
2019-01-16T20:06:23.812Z,3.10
2019-01-16T20:08:54.505Z,3.30
2019-01-16T20:11:18.282Z,3.73
2019-01-16T20:13:48.847Z,2.90
2019-01-16T20:16:18.696Z,3.07
2019-01-16T20:18:42.851Z,3.53
2019-01-16T20:21:09.350Z,2.80
2019-01-16T20:23:35.834Z,3.10
2019-01-16T20:26:02.357Z,4.17
2019-01-16T20:28:26.838Z,3.10
2019-01-16T20:30:50.912Z,3.50
2019-01-16T20:33:32.636Z,3.40
2019-01-16T20:35:56.183Z,3.03
2019-01-16T20:38:24.285Z,3.40
2019-01-16T20:40:48.021Z,3.10
2019-01-16T20:43:17.290Z,3.20
2019-01-16T20:45:43.936Z,3.00
2019-01-16T20:48:09.535Z,2.77
2019-01-16T20:50:45.807Z,3.43
2019-01-16T20:53:17.594Z,3.20
2019-01-16T20:55:45.969Z,2.90
2019-01-16T20:58:14.441Z,3.00
2019-01-16T21:00:37.344Z,3.70
2019-01-16T21:03:01.449Z,3.03
2019-01-16T21:05:27.820Z,3.07
2019-01-16T21:07:51.164Z,2.93
2019-01-16T21:10:24.890Z,2.83
2019-01-16T21:13:00.290Z,3.00
2019-01-16T21:15:24.513Z,3.20
2019-01-16T21:17:47.974Z,3.03
2019-01-16T21:20:11.907Z,2.77
2019-01-16T21:22:50.909Z,3.00
2019-01-16T21:25:16.225Z,3.37
2019-01-16T21:27:57.692Z,3.00
2019-01-16T21:30:40.894Z,2.87
2019-01-16T21:33:10.534Z,3.10
2019-01-16T21:35:30.946Z,2.57
2019-01-16T21:37:55.425Z,3.10
2019-01-16T21:40:21.979Z,6.00
2019-01-16T21:42:42.258Z,2.50
2019-01-16T21:45:13.486Z,2.90
2019-01-16T21:47:48.624Z,2.50
2019-01-16T21:50:17.851Z,2.30
2019-01-16T21:52:33.678Z,2.70
2019-01-16T21:54:55.659Z,3.07
2019-01-16T21:57:24.296Z,2.63
2019-01-16T21:59:47.565Z,2.50
2019-01-16T22:02:09.357Z,2.33
2019-01-16T22:04:34.306Z,2.70
2019-01-16T22:07:03.806Z,2.87
2019-01-16T22:09:37.446Z,2.30
2019-01-16T22:12:26.534Z,2.47
2019-01-16T22:14:56.845Z,2.77
2019-01-16T22:17:48.669Z,2.57
2019-01-16T22:20:20.398Z,2.67
2019-01-16T22:22:50.709Z,2.50
2019-01-16T22:25:13.806Z,2.60
2019-01-16T22:27:46.432Z,2.60
2019-01-16T22:30:04.602Z,2.53
2019-01-16T22:32:30.689Z,2.30
2019-01-16T22:35:08.656Z,2.80
2019-01-16T22:37:42.623Z,1.90
2019-01-16T22:40:13.787Z,2.57
2019-01-16T22:42:48.420Z,2.63
2019-01-16T22:45:22.203Z,2.83
2019-01-16T22:47:52.952Z,19.43
2019-01-16T22:50:14.372Z,45.23
2019-01-16T22:52:52.094Z,121.37
2019-01-16T22:55:13.596Z,449.23
2019-01-16T22:57:37.762Z,422.07
2019-01-16T23:00:10.782Z,1084.87
2019-01-16T23:02:43.201Z,640.87
2019-01-16T23:05:16.690Z,295.77
2019-01-16T23:07:47.813Z,959.33
2019-01-16T23:10:07.054Z,777.57
2019-01-16T23:12:33.814Z,973.17
2019-01-16T23:14:56.894Z,1043.60
2019-01-16T23:17:43.208Z,1024.13
2019-01-16T23:20:10.544Z,575.30
2019-01-16T23:22:52.968Z,971.17
2019-01-16T23:25:29.045Z,830.73
2019-01-16T23:28:11.927Z,531.23
2019-01-16T23:30:37.297Z,495.93
2019-01-16T23:33:02.690Z,215.30
2019-01-16T23:35:39.430Z,72.83
2019-01-16T23:38:03.379Z,22.27
2019-01-16T23:40:28.537Z,413.27
2019-01-16T23:43:10.644Z,142.37
2019-01-16T23:45:35.182Z,11.93
2019-01-16T23:48:21.736Z,6.93
2019-01-16T23:50:59.153Z,5.37
2019-01-16T23:53:22.493Z,5.67
2019-01-16T23:55:50.010Z,3.70
2019-01-16T23:58:33.149Z,4.00
